createdAt,value
2023-02-12T00:00:20.136Z,1.27
2023-02-12T00:02:52.038Z,1.90
2023-02-12T00:05:23.524Z,1.50
2023-02-12T00:07:55.472Z,1.42
2023-02-12T00:10:26.953Z,1.47
2023-02-12T00:12:58.758Z,1.15
2023-02-12T00:15:30.368Z,0.98
2023-02-12T00:18:02.196Z,1.88
2023-02-12T00:20:33.734Z,1.17
2023-02-12T00:23:05.291Z,1.60
2023-02-12T00:25:36.784Z,1.38
2023-02-12T00:28:08.667Z,1.20
2023-02-12T00:30:40.283Z,1.20
2023-02-12T00:33:12.142Z,1.40
2023-02-12T00:35:43.606Z,1.33
2023-02-12T00:38:16.257Z,1.40
2023-02-12T00:40:47.754Z,1.30
2023-02-12T00:43:19.289Z,2.10
2023-02-12T00:45:50.879Z,1.83
2023-02-12T00:48:22.397Z,1.25
2023-02-12T00:50:54.169Z,0.98
2023-02-12T00:53:25.706Z,0.77
2023-02-12T00:55:57.853Z,1.73
2023-02-12T00:58:29.650Z,1.00
2023-02-12T01:01:01.591Z,1.67
2023-02-12T01:03:33.117Z,0.93
2023-02-12T01:06:06.218Z,0.80
2023-02-12T01:08:37.881Z,1.20
2023-02-12T01:11:09.564Z,0.73
2023-02-12T01:13:41.087Z,0.90
2023-02-12T01:16:13.512Z,1.35
2023-02-12T01:18:45.014Z,1.33
2023-02-12T01:21:16.525Z,1.05
2023-02-12T01:23:48.040Z,1.20
2023-02-12T01:26:19.541Z,1.15
2023-02-12T01:28:51.039Z,1.52
2023-02-12T01:31:22.695Z,1.17
2023-02-12T01:33:54.297Z,0.90
2023-02-12T01:36:26.150Z,1.42
2023-02-12T01:38:58.022Z,1.33
2023-02-12T01:41:29.791Z,1.23
2023-02-12T01:44:01.260Z,0.73
2023-02-12T01:46:33.170Z,1.38
2023-02-12T01:49:04.734Z,2.07
2023-02-12T01:51:36.474Z,1.05
2023-02-12T01:54:07.969Z,1.10
2023-02-12T01:56:39.860Z,0.65
2023-02-12T01:59:11.355Z,1.60
2023-02-12T02:01:43.292Z,1.63
2023-02-12T02:04:14.805Z,0.90
2023-02-12T02:06:46.774Z,1.65
2023-02-12T02:09:18.284Z,0.80
2023-02-12T02:12:08.918Z,1.13
2023-02-12T02:14:40.436Z,1.00
2023-02-12T02:17:12.252Z,2.10
2023-02-12T02:19:43.759Z,1.55
2023-02-12T02:22:15.229Z,0.77
2023-02-12T02:24:46.754Z,1.05
2023-02-12T02:27:18.265Z,0.90
2023-02-12T02:29:49.757Z,1.77
2023-02-12T02:32:21.253Z,0.70
2023-02-12T02:34:52.781Z,1.38
2023-02-12T02:37:24.441Z,2.03
2023-02-12T02:39:56.190Z,0.90
2023-02-12T02:42:27.878Z,0.70
2023-02-12T02:44:59.388Z,1.10
2023-02-12T02:47:31.088Z,1.30
2023-02-12T02:50:02.588Z,0.98
2023-02-12T02:52:34.614Z,0.88
2023-02-12T02:55:06.115Z,1.33
2023-02-12T02:57:37.869Z,1.48
2023-02-12T03:00:09.370Z,0.90
2023-02-12T03:02:41.420Z,1.15
2023-02-12T03:05:12.946Z,0.82
2023-02-12T03:07:44.774Z,0.55
2023-02-12T03:10:16.294Z,0.68
2023-02-12T03:12:48.099Z,1.23
2023-02-12T03:15:19.605Z,0.60
2023-02-12T03:17:51.512Z,1.48
2023-02-12T03:20:23.021Z,0.90
2023-02-12T03:22:54.860Z,1.13
2023-02-12T03:25:26.436Z,1.23
2023-02-12T03:27:58.365Z,1.00
2023-02-12T03:30:29.892Z,1.43
2023-02-12T03:33:01.730Z,0.80
2023-02-12T03:35:33.237Z,1.20
2023-02-12T03:38:05.208Z,1.20
2023-02-12T03:40:36.708Z,1.60
2023-02-12T03:43:09.048Z,1.67
2023-02-12T03:45:40.614Z,1.27
2023-02-12T03:48:12.749Z,1.85
2023-02-12T03:50:44.348Z,1.50
2023-02-12T03:53:15.965Z,1.85
2023-02-12T03:55:47.465Z,1.45
2023-02-12T03:58:19.020Z,1.85
2023-02-12T04:00:50.563Z,1.55
2023-02-12T04:03:22.096Z,1.10
2023-02-12T04:05:54.001Z,1.25
2023-02-12T04:08:26.266Z,1.20
2023-02-12T04:10:57.885Z,1.83
2023-02-12T04:13:29.896Z,1.60
2023-02-12T04:16:01.423Z,1.27
2023-02-12T04:18:33.493Z,0.90
2023-02-12T04:21:04.993Z,1.00
2023-02-12T04:23:36.821Z,1.30
2023-02-12T04:26:08.493Z,2.38
2023-02-12T04:28:40.512Z,1.17
2023-02-12T04:31:12.270Z,2.10
2023-02-12T04:33:44.068Z,1.15
2023-02-12T04:36:15.609Z,1.00
2023-02-12T04:38:47.426Z,1.23
2023-02-12T04:41:18.952Z,1.98
2023-02-12T04:43:50.675Z,1.02
2023-02-12T04:46:22.293Z,0.95
2023-02-12T04:48:53.849Z,2.20
2023-02-12T04:51:25.593Z,1.67
2023-02-12T04:53:57.102Z,1.30
2023-02-12T04:56:28.952Z,2.13
2023-02-12T04:59:00.459Z,2.00
2023-02-12T05:01:32.335Z,1.20
2023-02-12T05:04:03.873Z,0.93
2023-02-12T05:06:35.938Z,1.15
2023-02-12T05:09:07.449Z,1.50
2023-02-12T05:11:38.979Z,1.55
2023-02-12T05:14:10.504Z,1.92
2023-02-12T05:16:42.287Z,1.27
2023-02-12T05:19:13.813Z,2.28
2023-02-12T05:21:45.600Z,1.25
2023-02-12T05:24:17.128Z,1.40
2023-02-12T05:26:49.073Z,1.50
2023-02-12T05:29:20.576Z,1.33
2023-02-12T05:31:52.591Z,1.33
2023-02-12T05:34:24.201Z,1.90
2023-02-12T05:36:56.004Z,1.48
2023-02-12T05:39:27.568Z,1.48
2023-02-12T05:41:59.133Z,1.52
2023-02-12T05:44:30.643Z,0.90
2023-02-12T05:47:02.476Z,1.50
2023-02-12T05:49:34.602Z,0.98
2023-02-12T05:52:06.138Z,1.05
2023-02-12T05:54:37.644Z,1.60
2023-02-12T05:57:09.539Z,1.52
2023-02-12T05:59:41.070Z,2.00
2023-02-12T06:02:12.953Z,1.88
2023-02-12T06:04:46.391Z,1.15
2023-02-12T06:07:19.066Z,1.55
2023-02-12T06:09:50.768Z,2.25
2023-02-12T06:12:22.625Z,1.85
2023-02-12T06:14:54.118Z,1.50
2023-02-12T06:17:25.943Z,1.52
2023-02-12T06:19:57.444Z,1.65
2023-02-12T06:22:29.297Z,1.38
2023-02-12T06:25:00.819Z,1.95
2023-02-12T06:27:32.729Z,1.50
2023-02-12T06:30:04.233Z,2.25
2023-02-12T06:32:36.077Z,2.17
2023-02-12T06:35:07.588Z,1.20
2023-02-12T06:37:39.484Z,1.30
2023-02-12T06:40:10.988Z,1.23
2023-02-12T06:42:42.519Z,1.00
2023-02-12T06:45:14.009Z,1.02
2023-02-12T06:47:45.855Z,1.40
2023-02-12T06:50:17.361Z,1.33
2023-02-12T06:52:49.228Z,1.70
2023-02-12T06:55:20.767Z,1.40
2023-02-12T06:57:52.524Z,1.50
2023-02-12T07:00:24.138Z,1.50
2023-02-12T07:02:55.872Z,1.67
2023-02-12T07:05:27.369Z,2.00
2023-02-12T07:07:59.228Z,1.80
2023-02-12T07:10:30.815Z,1.02
2023-02-12T07:13:02.913Z,1.52
2023-02-12T07:15:34.424Z,1.90
2023-02-12T07:18:06.340Z,1.10
2023-02-12T07:20:37.905Z,1.35
2023-02-12T07:23:09.793Z,1.95
2023-02-12T07:25:41.362Z,1.20
2023-02-12T07:28:12.941Z,1.38
2023-02-12T07:30:44.483Z,1.27
2023-02-12T07:33:16.004Z,2.17
2023-02-12T07:35:47.506Z,1.30
2023-02-12T07:38:19.052Z,1.92
2023-02-12T07:40:50.629Z,1.25
2023-02-12T07:43:22.522Z,0.93
2023-02-12T07:45:54.485Z,1.60
2023-02-12T07:48:26.395Z,1.17
2023-02-12T07:50:57.917Z,1.35
2023-02-12T07:53:29.455Z,1.83
2023-02-12T07:56:00.967Z,1.40
2023-02-12T07:58:32.852Z,1.60
2023-02-12T08:01:04.355Z,1.40
2023-02-12T08:03:36.157Z,1.50
2023-02-12T08:06:08.286Z,1.40
2023-02-12T08:08:40.146Z,1.02
2023-02-12T08:11:11.665Z,1.70
2023-02-12T08:13:43.190Z,1.30
2023-02-12T08:16:14.854Z,1.15
2023-02-12T08:18:46.772Z,1.25
2023-02-12T08:21:18.302Z,1.30
2023-02-12T08:23:50.924Z,1.30
2023-02-12T08:26:22.449Z,1.35
2023-02-12T08:28:54.166Z,1.05
2023-02-12T08:31:25.829Z,1.27
2023-02-12T08:33:57.642Z,0.77
2023-02-12T08:36:29.149Z,1.30
2023-02-12T08:39:01.038Z,1.40
2023-02-12T08:41:32.570Z,0.93
2023-02-12T08:44:04.104Z,1.63
2023-02-12T08:46:35.658Z,1.20
2023-02-12T08:49:07.654Z,1.42
2023-02-12T08:51:39.214Z,1.13
2023-02-12T08:54:11.144Z,1.02
2023-02-12T08:56:42.733Z,1.63
2023-02-12T08:59:14.300Z,1.65
2023-02-12T09:01:45.941Z,1.52
2023-02-12T09:04:18.082Z,1.60
2023-02-12T09:06:49.722Z,1.13
2023-02-12T09:09:21.284Z,1.95
2023-02-12T09:11:52.804Z,1.52
2023-02-12T09:14:25.276Z,1.58
2023-02-12T09:16:58.236Z,1.85
2023-02-12T09:22:01.426Z,1.40
2023-02-12T09:24:33.055Z,1.15
2023-02-12T09:27:04.642Z,1.75
2023-02-12T09:29:36.614Z,1.13
2023-02-12T09:32:09.298Z,1.50
2023-02-12T09:34:41.218Z,1.27
2023-02-12T09:37:12.741Z,1.10
2023-02-12T09:39:45.441Z,1.40
2023-02-12T09:42:17.843Z,1.40
2023-02-12T09:44:49.428Z,1.58
2023-02-12T09:47:20.955Z,1.85
2023-02-12T09:49:52.536Z,1.40
2023-02-12T09:52:24.058Z,1.63
2023-02-12T09:54:55.612Z,1.27
2023-02-12T09:57:29.455Z,1.05
2023-02-12T10:00:01.499Z,1.55
2023-02-12T10:02:34.928Z,1.37
2023-02-12T10:05:06.559Z,3.25
2023-02-12T10:07:38.130Z,1.15
2023-02-12T10:10:10.158Z,1.60
2023-02-12T10:12:41.716Z,1.23
2023-02-12T10:15:13.809Z,1.85
2023-02-12T10:17:45.385Z,1.30
2023-02-12T10:20:16.915Z,1.25
2023-02-12T10:22:56.812Z,1.55
2023-02-12T10:25:29.402Z,1.15
2023-02-12T10:28:02.133Z,1.37
2023-02-12T10:30:34.014Z,1.25
2023-02-12T10:33:05.607Z,1.35
2023-02-12T10:35:37.677Z,1.48
2023-02-12T10:38:09.183Z,1.10
2023-02-12T10:40:41.106Z,1.63
2023-02-12T10:43:12.969Z,1.23
2023-02-12T10:45:44.910Z,1.40
2023-02-12T10:48:16.639Z,1.58
2023-02-12T10:50:48.938Z,1.20
2023-02-12T10:53:20.485Z,2.15
2023-02-12T10:55:52.373Z,1.42
2023-02-12T10:58:24.973Z,2.05
2023-02-12T11:00:57.009Z,1.50
2023-02-12T11:03:28.565Z,1.63
2023-02-12T11:06:00.639Z,1.35
2023-02-12T11:08:32.200Z,1.70
2023-02-12T11:11:04.249Z,1.52
2023-02-12T11:13:35.789Z,2.47
2023-02-12T11:16:07.706Z,1.05
2023-02-12T11:18:39.364Z,1.83
2023-02-12T11:21:11.180Z,1.50
2023-02-12T11:23:42.795Z,1.77
2023-02-12T11:26:14.386Z,1.65
2023-02-12T11:28:46.018Z,1.52
2023-02-12T11:31:17.739Z,1.58
2023-02-12T11:33:49.316Z,1.40
2023-02-12T11:36:20.904Z,1.73
2023-02-12T11:38:52.456Z,1.70
2023-02-12T11:41:24.356Z,1.27
2023-02-12T11:43:55.865Z,2.08
2023-02-12T11:46:27.664Z,1.50
2023-02-12T11:49:00.735Z,1.38
2023-02-12T11:51:32.680Z,1.40
2023-02-12T11:54:04.228Z,1.58
2023-02-12T11:56:36.078Z,1.50
2023-02-12T11:59:07.649Z,1.02
2023-02-12T12:01:39.615Z,1.92
2023-02-12T12:04:11.982Z,0.97
2023-02-12T12:06:43.903Z,1.30
2023-02-12T12:09:15.411Z,1.48
2023-02-12T12:11:47.195Z,1.05
2023-02-12T12:14:18.784Z,1.40
2023-02-12T12:17:09.098Z,1.23
2023-02-12T12:19:53.151Z,1.20
2023-02-12T12:22:24.734Z,1.40
2023-02-12T12:24:56.830Z,1.38
2023-02-12T12:27:46.967Z,1.20
2023-02-12T12:30:18.505Z,1.15
2023-02-12T12:32:50.028Z,1.13
2023-02-12T12:35:21.619Z,1.20
2023-02-12T12:37:53.133Z,1.15
2023-02-12T12:40:24.989Z,1.05
2023-02-12T12:42:56.495Z,1.00
2023-02-12T12:45:28.388Z,0.93
2023-02-12T12:48:01.132Z,1.33
2023-02-12T12:50:33.003Z,1.33
2023-02-12T12:53:04.757Z,1.40
2023-02-12T12:55:36.561Z,1.58
2023-02-12T12:58:08.245Z,1.40
2023-02-12T13:00:40.255Z,1.25
2023-02-12T13:03:11.763Z,1.25
2023-02-12T13:05:43.506Z,1.20
2023-02-12T13:08:15.033Z,1.10
2023-02-12T13:10:46.897Z,1.20
2023-02-12T13:13:18.949Z,1.02
2023-02-12T13:15:50.769Z,1.13
2023-02-12T13:18:22.290Z,1.20
2023-02-12T13:20:54.142Z,1.08
2023-02-12T13:23:25.642Z,1.23
2023-02-12T13:25:57.850Z,1.20
2023-02-12T13:28:29.587Z,0.93
2023-02-12T13:31:01.626Z,0.82
2023-02-12T13:33:34.095Z,1.10
2023-02-12T13:36:06.017Z,1.42
2023-02-12T13:38:37.576Z,0.85
2023-02-12T13:41:09.482Z,0.98
2023-02-12T13:43:41.089Z,1.30
2023-02-12T13:46:13.332Z,1.20
2023-02-12T13:48:44.832Z,1.02
2023-02-12T13:51:16.353Z,0.95
2023-02-12T13:53:47.929Z,0.88
2023-02-12T13:56:19.499Z,0.82
2023-02-12T13:58:51.081Z,1.20
2023-02-12T14:01:22.946Z,1.27
2023-02-12T14:03:54.475Z,1.23
2023-02-12T14:06:26.319Z,0.93
2023-02-12T14:08:57.820Z,1.00
2023-02-12T14:11:29.527Z,0.90
2023-02-12T14:14:01.038Z,1.15
2023-02-12T14:16:32.880Z,0.70
2023-02-12T14:19:04.390Z,1.45
2023-02-12T14:21:36.304Z,1.00
2023-02-12T14:24:07.817Z,1.30
2023-02-12T14:26:39.678Z,1.13
2023-02-12T14:29:11.296Z,1.10
2023-02-12T14:31:43.504Z,0.90
2023-02-12T14:34:16.591Z,0.93
2023-02-12T14:36:49.451Z,1.27
2023-02-12T14:41:55.829Z,1.00
2023-02-12T14:44:28.957Z,1.10
2023-02-12T14:47:00.666Z,1.05
2023-02-12T14:49:32.195Z,1.23
2023-02-12T14:52:07.213Z,0.73
2023-02-12T14:54:38.738Z,0.85
2023-02-12T14:57:10.565Z,1.00
2023-02-12T14:59:42.532Z,0.90
2023-02-12T15:02:14.053Z,1.35
2023-02-12T15:04:45.608Z,0.68
2023-02-12T15:07:17.604Z,1.35
2023-02-12T15:09:49.104Z,0.80
2023-02-12T15:12:20.624Z,0.77
2023-02-12T15:14:52.527Z,0.77
2023-02-12T15:17:24.064Z,1.15
2023-02-12T15:19:55.965Z,1.00
2023-02-12T15:22:27.493Z,0.98
2023-02-12T15:24:59.193Z,1.02
2023-02-12T15:27:30.713Z,1.02
2023-02-12T15:30:02.726Z,0.80
2023-02-12T15:32:34.236Z,0.90
2023-02-12T15:35:06.077Z,1.10
2023-02-12T15:37:37.615Z,1.20
2023-02-12T15:40:11.773Z,1.52
2023-02-12T15:42:43.469Z,0.60
2023-02-12T15:45:14.974Z,1.00
2023-02-12T15:47:46.494Z,1.20
2023-02-12T15:50:18.199Z,0.65
2023-02-12T15:52:49.740Z,0.80
2023-02-12T15:55:21.716Z,1.13
2023-02-12T15:57:53.291Z,0.87
2023-02-12T16:00:25.134Z,1.08
2023-02-12T16:02:56.668Z,0.95
2023-02-12T16:05:28.590Z,0.73
2023-02-12T16:08:01.111Z,1.17
2023-02-12T16:10:32.874Z,1.00
2023-02-12T16:13:05.402Z,1.30
2023-02-12T16:15:40.276Z,1.27
2023-02-12T16:18:11.786Z,1.27
2023-02-12T16:20:46.431Z,1.17
2023-02-12T16:23:18.148Z,1.30
2023-02-12T16:25:49.695Z,1.40
2023-02-12T16:28:21.324Z,1.20
2023-02-12T16:30:53.477Z,1.00
2023-02-12T16:33:25.057Z,0.65
2023-02-12T16:35:57.156Z,0.77
2023-02-12T16:38:28.824Z,0.82
2023-02-12T16:41:00.632Z,0.80
2023-02-12T16:43:32.140Z,0.75
2023-02-12T16:46:04.044Z,0.43
2023-02-12T16:48:35.634Z,0.73
2023-02-12T16:51:07.534Z,0.52
2023-02-12T16:53:43.564Z,0.55
2023-02-12T16:56:18.370Z,0.50
2023-02-12T16:58:50.065Z,0.50
2023-02-12T17:01:21.637Z,0.80
2023-02-12T17:03:53.217Z,1.08
2023-02-12T17:06:25.044Z,0.80
2023-02-12T17:08:56.630Z,0.90
2023-02-12T17:11:28.593Z,0.85
2023-02-12T17:14:00.136Z,0.83
2023-02-12T17:16:32.443Z,0.90
2023-02-12T17:19:04.144Z,1.05
2023-02-12T17:21:38.545Z,0.80
2023-02-12T17:24:10.087Z,1.35
2023-02-12T17:26:41.948Z,0.95
2023-02-12T17:29:13.462Z,1.10
2023-02-12T17:31:45.118Z,0.77
2023-02-12T17:34:16.789Z,0.80
2023-02-12T17:36:48.321Z,1.10
2023-02-12T17:39:19.866Z,1.20
2023-02-12T17:41:52.070Z,1.20
2023-02-12T17:44:23.583Z,1.90
2023-02-12T17:46:55.393Z,0.88
2023-02-12T17:49:26.911Z,1.70
2023-02-12T17:51:58.448Z,1.65
2023-02-12T17:54:29.951Z,1.40
2023-02-12T17:57:01.677Z,1.63
2023-02-12T17:59:33.188Z,1.02
2023-02-12T18:02:05.059Z,1.30
2023-02-12T18:04:36.655Z,1.90
2023-02-12T18:07:08.597Z,2.25
2023-02-12T18:09:40.149Z,1.35
2023-02-12T18:12:12.050Z,1.75
2023-02-12T18:14:44.213Z,1.50
2023-02-12T18:17:15.751Z,2.40
2023-02-12T18:19:48.036Z,2.00
2023-02-12T18:22:19.544Z,1.40
2023-02-12T18:24:51.052Z,1.58
2023-02-12T18:27:22.710Z,1.95
2023-02-12T18:29:54.211Z,1.60
2023-02-12T18:32:26.114Z,2.00
2023-02-12T18:34:57.634Z,2.47
2023-02-12T18:37:29.454Z,1.77
2023-02-12T18:40:01.009Z,2.05
2023-02-12T18:42:33.311Z,1.70
2023-02-12T18:45:04.843Z,2.30
2023-02-12T18:47:36.772Z,2.17
2023-02-12T18:50:08.328Z,1.90
2023-02-12T18:52:40.154Z,1.83
2023-02-12T18:55:11.742Z,2.20
2023-02-12T18:57:43.654Z,2.10
2023-02-12T19:00:15.279Z,1.50
2023-02-12T19:02:47.125Z,2.08
2023-02-12T19:05:18.890Z,1.17
2023-02-12T19:07:50.792Z,2.40
2023-02-12T19:10:22.316Z,1.52
2023-02-12T19:12:53.973Z,2.03
2023-02-12T19:15:25.541Z,1.95
2023-02-12T19:17:57.494Z,1.63
2023-02-12T19:20:28.999Z,1.90
2023-02-12T19:23:00.541Z,1.73
2023-02-12T19:25:32.067Z,1.40
2023-02-12T19:28:03.949Z,1.73
2023-02-12T19:30:35.536Z,1.47
2023-02-12T19:33:07.106Z,1.83
2023-02-12T19:35:38.602Z,1.50
2023-02-12T19:38:10.134Z,1.30
2023-02-12T19:40:41.658Z,1.10
2023-02-12T19:43:13.454Z,1.17
2023-02-12T19:45:44.970Z,1.42
2023-02-12T19:48:16.499Z,1.52
2023-02-12T19:50:47.995Z,1.65
2023-02-12T19:53:19.551Z,1.70
2023-02-12T19:55:51.105Z,1.42
2023-02-12T19:58:23.025Z,1.77
2023-02-12T20:00:54.920Z,1.27
2023-02-12T20:03:26.569Z,2.10
2023-02-12T20:05:58.070Z,2.25
2023-02-12T20:08:30.027Z,1.10
2023-02-12T20:11:01.533Z,1.30
2023-02-12T20:13:33.208Z,1.20
2023-02-12T20:16:04.773Z,1.80
2023-02-12T20:18:36.335Z,1.98
2023-02-12T20:21:07.860Z,1.95
2023-02-12T20:23:39.663Z,2.15
2023-02-12T20:26:11.233Z,2.10
2023-02-12T20:28:43.210Z,1.60
2023-02-12T20:31:14.839Z,1.67
2023-02-12T20:33:46.762Z,1.50
2023-02-12T20:36:18.266Z,1.98
2023-02-12T20:38:49.773Z,2.15
2023-02-12T20:41:21.313Z,2.03
2023-02-12T20:43:53.146Z,0.95
2023-02-12T20:46:25.126Z,2.00
2023-02-12T20:48:57.716Z,1.40
2023-02-12T20:51:29.233Z,1.40
2023-02-12T20:54:01.097Z,1.80
2023-02-12T20:56:32.653Z,1.75
2023-02-12T20:59:04.482Z,1.73
2023-02-12T21:01:36.063Z,2.13
2023-02-12T21:04:07.852Z,2.33
2023-02-12T21:06:40.140Z,1.50
2023-02-12T21:09:11.991Z,1.98
2023-02-12T21:11:45.191Z,1.90
2023-02-12T21:14:24.663Z,2.22
2023-02-12T21:16:56.459Z,2.05
2023-02-12T21:19:28.551Z,1.75
2023-02-12T21:22:00.135Z,1.98
2023-02-12T21:24:31.809Z,2.13
2023-02-12T21:27:03.344Z,2.20
2023-02-12T21:29:35.106Z,2.00
2023-02-12T21:32:06.692Z,2.58
2023-02-12T21:34:38.738Z,1.88
2023-02-12T21:37:10.263Z,1.93
2023-02-12T21:39:42.113Z,2.92
2023-02-12T21:42:13.776Z,2.15
2023-02-12T21:44:45.325Z,2.53
2023-02-12T21:47:16.862Z,3.13
2023-02-12T21:49:48.406Z,3.03
2023-02-12T21:52:19.985Z,2.85
2023-02-12T21:54:53.505Z,2.65
2023-02-12T21:57:25.116Z,2.63
2023-02-12T21:59:56.609Z,2.83
2023-02-12T22:02:28.463Z,3.13
2023-02-12T22:05:00.005Z,3.15
2023-02-12T22:07:32.049Z,2.97
2023-02-12T22:10:03.935Z,2.63
2023-02-12T22:12:35.878Z,3.78
2023-02-12T22:15:07.386Z,3.70
2023-02-12T22:17:39.817Z,3.38
2023-02-12T22:20:11.395Z,3.33
2023-02-12T22:22:43.351Z,4.70
2023-02-12T22:25:14.941Z,2.60
2023-02-12T22:27:46.679Z,3.85
2023-02-12T22:30:18.281Z,3.42
2023-02-12T22:32:50.161Z,3.88
2023-02-12T22:35:21.702Z,4.20
2023-02-12T22:37:53.714Z,3.83
2023-02-12T22:40:25.242Z,3.47
2023-02-12T22:42:56.756Z,4.55
2023-02-12T22:45:28.300Z,2.50
2023-02-12T22:48:00.178Z,3.30
2023-02-12T22:50:31.700Z,3.35
2023-02-12T22:53:03.532Z,2.90
2023-02-12T22:55:35.126Z,3.88
2023-02-12T22:58:07.046Z,3.60
2023-02-12T23:00:38.555Z,3.45
2023-02-12T23:03:10.427Z,4.07
2023-02-12T23:05:42.012Z,2.50
2023-02-12T23:08:13.842Z,3.47
2023-02-12T23:10:45.372Z,3.55
2023-02-12T23:13:29.025Z,3.72
2023-02-12T23:16:01.326Z,3.00
2023-02-12T23:18:33.204Z,3.97
2023-02-12T23:21:04.771Z,3.38
2023-02-12T23:23:36.635Z,3.78
2023-02-12T23:26:08.152Z,3.85
2023-02-12T23:28:39.739Z,4.20
2023-02-12T23:31:11.367Z,3.72
2023-02-12T23:33:43.262Z,3.80
2023-02-12T23:36:14.827Z,3.88
2023-02-12T23:38:46.585Z,3.55
2023-02-12T23:41:18.104Z,3.47
2023-02-12T23:43:49.989Z,4.07
2023-02-12T23:46:21.539Z,3.25
2023-02-12T23:48:53.396Z,3.95
2023-02-12T23:51:24.925Z,3.80
2023-02-12T23:53:56.650Z,3.33
2023-02-12T23:56:28.163Z,3.65
2023-02-12T23:58:59.938Z,3.50
